Joshua Carter

Scout - Stoke City
20 Feb 2028
Sunday
Process

Personality

Adaptability (13) Ambition (14) Controversy (17) Loyalty (18) Pressure (9) Professionalism (19) Sportsmanship (15) Temperament (4)

Profile

Coaching Style Democratic
License Continental B
Determination 7
Man Management 12
Motivating 5
Discipline 6
Job Satisfaction
100%
Fatigue
0%
Role Scout
Wage 51.9K p/w
Contract 14.03.2030

Performance

Behaviour Good
Training Effectiveness
41%
Player Development
55%
Injury Prevention
50%
Tactical Implementation
25%

Recent Events

Attended a recruitment meeting now
Attended a recruitment meeting 7d ago
Recommended a transfer target 7d ago
Recommended a transfer target 7d ago
Attended a recruitment meeting 14d ago
Recommended a transfer target 14d ago
Recommended a transfer target 14d ago
Recommended a transfer target 21d ago

Currently Monitoring

62
Player Club Status Ability Confidence Watched Last Observed Latest Vote
Andrés Ayala Sunderland Active 119 / 105 65% 1 17.01.2028 Approve
Max Lowe Sheffield Wednesday Active 110 / 117 65% 1 21.06.2027 Approve
Josh King Chelsea Active 142 / 139 40% 4 30.05.2027 -
Adam Bakoune Ospitaletto Active 89 / 105 40% 1 30.05.2027 -
Tiago Freitas Benfica Active 113 / 122 40% 2 29.05.2027 -
Gonçalo Oliveira Benfica Active 108 / 118 40% 1 29.05.2027 -
Caleb Yirenkyi Coventry City Active 137 / 142 40% 2 25.05.2027 -
Keagan Tau Ajax Cape Town Active 105 / 104 40% 1 25.05.2027 -
Keagan Phiri Platinum Stars Active 112 / 95 40% 3 24.05.2027 -
Sascha Britschgi Padova Active 114 / 131 40% 3 24.05.2027 -
Juan Giménez Celta Active 108 / 124 40% 2 21.05.2027 -
Percy Jali Free State Stars Active 104 / 87 40% 1 19.05.2027 -
Dylan Lawlor Cardiff City Active 111 / 121 40% 4 18.05.2027 -
Daniel Kelly Oxford United Active 102 / 127 40% 1 18.05.2027 -
Martim Cunha Porto Active 94 / 114 40% 1 18.05.2027 -
Davide Bartesaghi AC Milan Active 135 / 127 40% 1 13.05.2027 -
Joel McGregor Swindon Town Active 100 / 104 40% 1 10.05.2027 -
Darryl Bakola Padova Active 110 / 117 40% 1 10.05.2027 -
Jofre Torrents Ajax Active 124 / 118 40% 3 09.05.2027 -
Christos Mouzakitis Hull City Active 126 / 135 40% 2 06.05.2027 -
Matías Gómez Granada Active 108 / 124 40% 2 06.05.2027 -
Ernie Weaver AFC Wimbledon Active 107 / 126 40% 4 29.04.2027 -
Joel Ezra Enyimba Active 101 / 111 40% 1 29.04.2027 -
Johan Manzambi Newcastle United Active 141 / 148 40% 1 29.04.2027 -
Kazunari Kita Real Sociedad Active 93 / 94 40% 2 21.04.2027 -
Hamish Douglas Grimsby Town Active 99 / 107 40% 1 17.04.2027 -
Zane Albarus Cambridge United Active 86 / 103 40% 1 10.04.2027 -
Ronwen Phiri Platinum Stars Active 110 / 93 40% 3 02.04.2027 -
Rivaldo Grobler Free State Stars Active 91 / 91 40% 1 29.03.2027 -
Murillo Nottingham Forest Active 150 / 150 40% 1 17.12.2026 -
Tyler Adams Bournemouth Active 158 / 144 40% 1 14.12.2026 -
Adrien Truffert Bournemouth Active 151 / 156 40% 3 09.12.2026 -
Welington Southampton Active 127 / 139 40% 1 07.12.2026 -
Adam Wharton Crystal Palace Active 147 / 157 40% 3 25.11.2026 -
Kristoffer Lund Birmingham Active 124 / 128 40% 1 25.11.2026 -
Braian Ojeda Orlando City Active 137 / 133 40% 2 24.11.2026 -
Aaron Hickey Brentford Active 150 / 152 40% 1 23.11.2026 -
Conrad Wallem Austria Wien Active 132 / 119 40% 1 23.11.2026 -
Christian Krasnodar Active 145 / 132 40% 1 23.11.2026 -
Elliot Anderson Manchester City Active 148 / 157 40% 1 21.11.2026 -
Adam Randell Bristol City Active 128 / 118 40% 1 19.11.2026 -
Juanlu Bournemouth Active 141 / 151 40% 2 17.11.2026 -
Nicolás Romero Minnesota United FC Active 131 / 142 40% 1 17.11.2026 -
El Hadji Malick Diouf Brentford Active 139 / 153 40% 1 14.11.2026 -
Callum Doyle Wrexham Active 125 / 126 40% 1 14.11.2026 -
Ryan Sessegnon Fulham Active 155 / 140 40% 3 09.11.2026 -
Ethan Galbraith Swansea City Active 136 / 126 40% 1 09.11.2026 -
Japhet Tanganga Sheffield United Active 136 / 126 40% 1 09.11.2026 -
Francisco Álvarez Argentinos Juniors Active 131 / 125 40% 1 08.11.2026 -
Max Bird Birmingham Active 141 / 134 40% 1 08.11.2026 -
Pedro Porro Tottenham Active 148 / 152 40% 1 05.11.2026 -
Noah Sadiki Sunderland Active 151 / 152 40% 1 05.11.2026 -
Sean Zawadzki Columbus Crew Active 124 / 127 40% 1 25.10.2026 -
Nathan Harriel Philadelphia Union Active 116 / 113 40% 1 23.10.2026 -
Rui Modesto Vancouver Whitecaps Active 112 / 119 40% 1 18.10.2026 -
Facundo Mura Inter Miami CF Active 119 / 126 40% 1 18.10.2026 -
Alhassan Yusuf New England Revolution Active 132 / 114 40% 1 15.10.2026 -
Oliver Skipp Leicester City Active 126 / 128 40% 1 15.10.2026 -
Santiago González Tigre Active 121 / 121 40% 1 15.10.2026 -
Lasse Berg Johnsen Sporting Kansas City Active 133 / 125 40% 1 13.10.2026 -
Nicolò Savona Nottingham Forest Active 137 / 134 40% 1 13.10.2026 -
Ismail Mukhtar El-Kanemi Warriors Active 77 / 92 40% 1 09.09.2026 -